createdAt,value
2022-09-21T00:02:06.126Z,4.80
2022-09-21T00:04:09.582Z,4.80
2022-09-21T00:06:14.789Z,4.70
2022-09-21T00:08:18.022Z,4.70
2022-09-21T00:12:25.147Z,4.80
2022-09-21T00:16:32.935Z,4.80
2022-09-21T00:18:38.229Z,4.80
2022-09-21T00:20:44.080Z,4.80
2022-09-21T00:22:48.910Z,4.80
2022-09-21T00:24:52.277Z,4.80
2022-09-21T00:26:55.574Z,4.90
2022-09-21T00:29:00.817Z,4.90
2022-09-21T00:31:05.325Z,4.80
2022-09-21T00:33:08.557Z,4.90
2022-09-21T00:35:13.193Z,4.80
2022-09-21T00:37:16.467Z,4.80
2022-09-21T00:39:19.679Z,4.80
2022-09-21T00:41:23.308Z,4.70
2022-09-21T00:43:27.011Z,4.70
2022-09-21T00:45:31.433Z,4.70
2022-09-21T00:47:37.239Z,4.60
2022-09-21T00:49:41.529Z,4.60
2022-09-21T00:51:46.721Z,4.60
2022-09-21T00:56:00.570Z,4.60
2022-09-21T00:58:08.463Z,4.60
2022-09-21T01:00:12.474Z,4.60
2022-09-21T01:02:15.910Z,4.60
2022-09-21T01:04:20.019Z,4.50
2022-09-21T01:06:23.489Z,4.60
2022-09-21T01:08:29.609Z,4.60
2022-09-21T01:12:56.176Z,4.70
2022-09-21T01:15:14.932Z,4.70
2022-09-21T01:17:25.491Z,4.70
2022-09-21T01:19:43.825Z,4.70
2022-09-21T01:21:56.441Z,4.80
2022-09-21T01:24:39.181Z,4.90
2022-09-21T01:27:00.860Z,5.00
2022-09-21T01:29:17.007Z,4.90
2022-09-21T01:31:26.981Z,5.00
2022-09-21T01:33:34.483Z,4.90
2022-09-21T01:35:42.209Z,5.00
2022-09-21T01:37:50.201Z,5.00
2022-09-21T01:39:58.286Z,5.00
2022-09-21T01:42:03.784Z,5.00
2022-09-21T01:44:12.218Z,4.90
2022-09-21T01:46:19.737Z,5.00
2022-09-21T01:48:25.900Z,5.00
2022-09-21T01:52:43.521Z,4.90
2022-09-21T01:54:52.085Z,4.90
2022-09-21T01:56:59.841Z,4.90
2022-09-21T02:01:18.238Z,4.90
2022-09-21T02:05:30.148Z,4.90
2022-09-21T02:07:34.894Z,4.80
2022-09-21T02:09:38.852Z,4.90
2022-09-21T02:11:43.971Z,4.90
2022-09-21T02:13:50.130Z,4.90
2022-09-21T02:18:13.354Z,4.80
2022-09-21T02:20:21.300Z,4.80
2022-09-21T02:22:33.377Z,4.70
2022-09-21T02:24:42.316Z,4.70
2022-09-21T02:26:51.545Z,4.60
2022-09-21T02:29:02.802Z,4.50
2022-09-21T02:31:14.351Z,4.50
2022-09-21T02:33:27.814Z,4.50
2022-09-21T02:35:37.401Z,4.30
2022-09-21T02:37:47.547Z,4.30
2022-09-21T02:40:09.850Z,4.30
2022-09-21T02:42:17.947Z,4.20
2022-09-21T02:44:26.307Z,4.20
2022-09-21T02:46:35.058Z,4.20
2022-09-21T02:48:44.518Z,4.10
2022-09-21T02:50:52.127Z,4.00
2022-09-21T02:52:56.715Z,4.10
2022-09-21T02:55:00.822Z,4.00
2022-09-21T02:59:09.075Z,4.00
2022-09-21T03:01:14.578Z,3.90
2022-09-21T03:03:20.255Z,3.90
2022-09-21T03:05:25.426Z,3.90
2022-09-21T03:07:28.699Z,3.80
2022-09-21T03:09:31.941Z,3.80
2022-09-21T03:13:39.422Z,3.80
2022-09-21T03:15:43.897Z,3.70
2022-09-21T03:19:50.742Z,3.70
2022-09-21T03:21:55.722Z,3.80
2022-09-21T03:23:59.010Z,3.80
2022-09-21T03:26:02.716Z,3.70
2022-09-21T03:28:06.972Z,3.70
2022-09-21T03:30:11.424Z,3.60
2022-09-21T03:34:18.750Z,3.70
2022-09-21T03:38:26.962Z,3.60
2022-09-21T03:40:34.245Z,3.60
2022-09-21T03:42:37.579Z,3.50
2022-09-21T03:44:41.245Z,3.50
2022-09-21T03:48:49.605Z,3.50
2022-09-21T03:50:53.023Z,3.50
2022-09-21T03:52:56.619Z,3.50
2022-09-21T03:57:05.159Z,3.40
2022-09-21T03:59:11.884Z,3.30
2022-09-21T04:01:17.725Z,3.30
2022-09-21T04:03:21.132Z,3.30
2022-09-21T04:05:24.451Z,3.30
2022-09-21T04:07:32.451Z,3.30
2022-09-21T04:09:35.773Z,3.20
2022-09-21T04:11:40.566Z,3.30
2022-09-21T04:13:43.983Z,3.30
2022-09-21T04:15:47.288Z,3.30
2022-09-21T04:17:53.377Z,3.30
2022-09-21T04:19:56.793Z,3.30
2022-09-21T04:22:00.087Z,3.30
2022-09-21T04:24:04.271Z,3.20
2022-09-21T04:26:07.590Z,3.20
2022-09-21T04:30:17.358Z,3.10
2022-09-21T04:32:20.942Z,3.10
2022-09-21T04:34:24.233Z,3.10
2022-09-21T04:36:33.179Z,3.00
2022-09-21T04:38:40.626Z,3.00
2022-09-21T04:42:52.806Z,3.00
2022-09-21T04:49:04.880Z,3.00
2022-09-21T04:51:09.231Z,3.00
2022-09-21T04:53:12.818Z,3.00
2022-09-21T04:57:21.408Z,3.00
2022-09-21T05:01:29.876Z,3.10
2022-09-21T05:05:37.341Z,3.10
2022-09-21T05:07:43.934Z,3.20
2022-09-21T05:10:04.580Z,3.10
2022-09-21T05:12:08.385Z,3.20
2022-09-21T05:14:12.390Z,3.20
2022-09-21T05:16:16.298Z,3.20
2022-09-21T05:18:21.324Z,3.30
2022-09-21T05:20:24.782Z,3.30
2022-09-21T05:22:30.692Z,3.30
2022-09-21T05:24:34.059Z,3.30
2022-09-21T05:26:37.452Z,3.40
2022-09-21T05:28:41.286Z,3.40
2022-09-21T05:31:07.204Z,3.50
2022-09-21T05:35:30.137Z,3.50
2022-09-21T05:37:47.002Z,3.60
2022-09-21T05:39:50.772Z,3.60
2022-09-21T05:41:55.118Z,3.70
2022-09-21T05:43:58.959Z,3.80
2022-09-21T05:46:06.543Z,3.80
2022-09-21T05:48:16.250Z,3.90
2022-09-21T05:50:32.219Z,3.90
2022-09-21T05:52:43.593Z,4.00
2022-09-21T05:54:58.214Z,4.10
2022-09-21T05:57:07.372Z,4.20
2022-09-21T05:59:35.462Z,4.40
2022-09-21T06:01:51.617Z,4.50
2022-09-21T06:03:57.078Z,4.70
2022-09-21T06:06:01.866Z,4.80
2022-09-21T06:08:05.203Z,5.00
2022-09-21T06:10:09.809Z,5.10
2022-09-21T06:12:13.068Z,5.20
2022-09-21T06:14:16.286Z,5.30
2022-09-21T06:18:23.347Z,5.50
2022-09-21T06:22:31.669Z,5.80
2022-09-21T06:24:34.892Z,5.90
2022-09-21T06:26:38.150Z,6.00
2022-09-21T06:28:41.467Z,6.20
2022-09-21T06:30:45.183Z,6.30
2022-09-21T06:32:48.532Z,6.50
2022-09-21T06:34:52.029Z,6.90
2022-09-21T06:39:00.347Z,8.40
2022-09-21T06:41:04.555Z,8.70
2022-09-21T06:43:07.908Z,9.10
2022-09-21T06:45:11.953Z,9.70
2022-09-21T06:49:19.059Z,10.50
2022-09-21T06:59:42.867Z,12.80
2022-09-21T07:03:51.732Z,13.60
2022-09-21T07:05:55.103Z,14.00
2022-09-21T07:10:05.559Z,15.20
2022-09-21T07:32:50.606Z,22.10
2022-09-21T07:37:00.140Z,22.60
2022-09-21T07:39:03.765Z,23.40
2022-09-21T07:45:16.490Z,23.30
2022-09-21T07:47:20.064Z,24.60
2022-09-21T07:49:23.327Z,24.80
2022-09-21T07:51:26.722Z,25.00
2022-09-21T07:53:31.803Z,25.00
2022-09-21T07:58:10.530Z,25.00
2022-09-21T08:00:16.084Z,26.50
2022-09-21T08:06:29.379Z,26.90
2022-09-21T08:08:32.602Z,26.90
2022-09-21T08:10:36.118Z,26.50
2022-09-21T08:12:39.553Z,26.80
2022-09-21T08:14:43.005Z,28.00
2022-09-21T08:16:48.227Z,28.00
2022-09-21T08:18:52.014Z,28.20
2022-09-21T08:20:56.603Z,29.40
2022-09-21T08:23:00.235Z,29.80
2022-09-21T08:25:03.879Z,29.60
2022-09-21T08:35:24.528Z,28.30
2022-09-21T08:37:27.915Z,29.30
2022-09-21T08:39:31.350Z,29.30
2022-09-21T08:45:50.623Z,28.40
2022-09-21T08:47:58.111Z,28.90
2022-09-21T08:50:05.293Z,29.40
2022-09-21T08:52:15.873Z,29.20
2022-09-21T08:54:28.357Z,29.40
2022-09-21T08:56:53.268Z,29.40
2022-09-21T09:01:09.937Z,29.90
2022-09-21T09:05:46.185Z,30.30
2022-09-21T09:08:06.571Z,30.70
2022-09-21T09:10:23.547Z,29.70
2022-09-21T09:12:44.144Z,29.10
2022-09-21T09:15:11.741Z,29.00
2022-09-21T09:17:37.527Z,29.00
2022-09-21T09:19:46.443Z,26.30
2022-09-21T09:21:51.114Z,25.00
2022-09-21T09:24:00.462Z,24.50
2022-09-21T09:26:09.190Z,25.70
2022-09-21T09:28:23.735Z,27.00
2022-09-21T09:30:28.362Z,25.80
2022-09-21T09:32:37.123Z,24.20
2022-09-21T09:34:43.536Z,23.30
2022-09-21T09:36:59.146Z,22.40
2022-09-21T09:39:12.890Z,21.40
2022-09-21T09:41:31.337Z,20.30
2022-09-21T09:43:49.262Z,19.80
2022-09-21T09:46:02.226Z,19.20
2022-09-21T09:48:20.042Z,18.80
2022-09-21T09:50:29.526Z,19.50
2022-09-21T09:52:33.647Z,20.40
2022-09-21T09:56:42.180Z,23.40
2022-09-21T09:58:50.935Z,24.70
2022-09-21T10:00:57.690Z,25.70
2022-09-21T10:03:02.502Z,25.30
2022-09-21T10:05:07.136Z,27.30
2022-09-21T10:07:19.965Z,27.10
2022-09-21T10:11:39.818Z,28.30
2022-09-21T10:13:44.522Z,27.20
2022-09-21T10:15:55.637Z,25.30
2022-09-21T10:18:04.409Z,23.80
2022-09-21T10:20:15.977Z,24.10
2022-09-21T10:22:22.764Z,24.40
2022-09-21T10:24:29.524Z,23.80
2022-09-21T10:26:35.861Z,22.20
2022-09-21T10:28:56.847Z,21.50
2022-09-21T10:31:12.297Z,20.80
2022-09-21T10:33:21.292Z,20.30
2022-09-21T10:35:25.296Z,21.10
2022-09-21T10:37:29.954Z,21.20
2022-09-21T10:39:33.921Z,20.70
2022-09-21T10:41:39.099Z,20.00
2022-09-21T10:43:44.635Z,19.80
2022-09-21T10:45:56.110Z,19.30
2022-09-21T10:48:08.050Z,19.20
2022-09-21T10:54:34.639Z,22.30
2022-09-21T10:56:38.040Z,22.60
2022-09-21T10:58:41.314Z,21.50
2022-09-21T11:02:51.949Z,23.70
2022-09-21T11:05:00.399Z,24.00
2022-09-21T11:07:15.147Z,23.30
2022-09-21T11:09:23.650Z,22.80
2022-09-21T11:11:51.040Z,21.50
2022-09-21T11:14:01.271Z,21.40
2022-09-21T11:16:16.425Z,21.60
2022-09-21T11:18:23.847Z,21.80
2022-09-21T11:20:34.792Z,21.30
2022-09-21T11:22:45.215Z,21.00
2022-09-21T11:24:54.489Z,20.30
2022-09-21T11:27:04.043Z,20.50
2022-09-21T11:29:13.579Z,20.30
2022-09-21T11:31:45.230Z,20.10
2022-09-21T11:34:04.437Z,19.80
2022-09-21T11:36:15.698Z,19.40
2022-09-21T11:38:37.600Z,19.50
2022-09-21T11:41:07.227Z,20.10
2022-09-21T11:43:24.261Z,19.60
2022-09-21T11:45:51.167Z,19.40
2022-09-21T11:48:14.963Z,19.00
2022-09-21T11:50:47.827Z,18.90
2022-09-21T11:55:32.792Z,19.50
2022-09-21T11:57:40.925Z,21.10
2022-09-21T12:00:00.970Z,20.80
2022-09-21T12:02:38.203Z,20.30
2022-09-21T12:04:50.359Z,19.20
2022-09-21T12:07:07.975Z,18.80
2022-09-21T12:11:43.244Z,19.50
2022-09-21T12:16:03.826Z,22.00
2022-09-21T12:20:24.732Z,23.00
2022-09-21T12:22:30.993Z,23.40
2022-09-21T12:24:40.899Z,23.30
2022-09-21T12:26:47.862Z,22.10
2022-09-21T12:29:00.970Z,20.90
2022-09-21T12:35:26.417Z,23.50
2022-09-21T12:37:34.881Z,24.90
2022-09-21T12:41:53.853Z,25.30
2022-09-21T12:48:16.781Z,26.20
2022-09-21T12:50:26.925Z,25.50
2022-09-21T12:52:31.059Z,24.10
2022-09-21T12:54:45.450Z,23.10
2022-09-21T12:56:56.920Z,22.80
2022-09-21T12:59:19.898Z,22.60
2022-09-21T13:01:33.307Z,21.50
2022-09-21T13:03:44.060Z,21.80
2022-09-21T13:06:06.578Z,21.90
2022-09-21T13:08:13.431Z,22.20
2022-09-21T13:10:20.304Z,22.30
2022-09-21T13:12:26.931Z,22.30
2022-09-21T13:14:34.842Z,22.70
2022-09-21T13:16:41.131Z,21.60
2022-09-21T13:18:44.523Z,20.50
2022-09-21T13:20:52.126Z,19.40
2022-09-21T13:23:01.451Z,18.70
2022-09-21T13:25:09.446Z,18.60
2022-09-21T13:29:33.125Z,18.60
2022-09-21T13:31:57.583Z,20.30
2022-09-21T13:34:17.974Z,21.50
2022-09-21T13:36:37.856Z,21.30
2022-09-21T13:39:04.828Z,20.20
2022-09-21T13:41:45.447Z,20.10
2022-09-21T13:44:05.018Z,19.60
2022-09-21T13:46:09.058Z,19.30
2022-09-21T13:48:20.172Z,19.10
2022-09-21T13:50:26.558Z,18.80
2022-09-21T13:52:39.475Z,18.60
2022-09-21T13:54:50.625Z,18.20
2022-09-21T13:57:09.165Z,17.90
2022-09-21T13:59:26.201Z,17.80
2022-09-21T14:01:46.878Z,18.00
2022-09-21T14:03:54.784Z,18.00
2022-09-21T14:06:04.212Z,18.00
2022-09-21T14:08:31.639Z,18.10
2022-09-21T14:10:38.462Z,18.00
2022-09-21T14:12:48.583Z,17.90
2022-09-21T14:15:12.967Z,18.00
2022-09-21T14:17:35.650Z,17.90
2022-09-21T14:20:08.162Z,17.90
2022-09-21T14:22:33.887Z,17.70
2022-09-21T14:24:41.678Z,17.90
2022-09-21T14:27:00.296Z,17.40
2022-09-21T14:29:14.754Z,17.30
2022-09-21T14:31:22.208Z,17.20
2022-09-21T14:33:43.298Z,17.20
2022-09-21T14:35:48.874Z,17.20
2022-09-21T14:37:56.177Z,17.40
2022-09-21T14:40:05.861Z,17.30
2022-09-21T14:42:15.807Z,17.20
2022-09-21T14:44:21.860Z,17.20
2022-09-21T14:47:02.943Z,17.00
2022-09-21T14:49:23.130Z,16.80
2022-09-21T14:51:38.368Z,16.60
2022-09-21T14:54:24.056Z,16.40
2022-09-21T14:56:41.345Z,16.40
2022-09-21T14:58:57.192Z,16.30
2022-09-21T15:01:22.549Z,16.20
2022-09-21T15:03:56.148Z,16.00
2022-09-21T15:06:25.639Z,15.80
2022-09-21T15:09:05.901Z,15.80
2022-09-21T15:11:14.352Z,16.00
2022-09-21T15:13:48.058Z,15.70
2022-09-21T15:16:11.420Z,15.70
2022-09-21T15:18:21.912Z,15.60
2022-09-21T15:20:25.158Z,15.50
2022-09-21T15:22:29.206Z,15.40
2022-09-21T15:24:35.526Z,15.20
2022-09-21T15:26:41.073Z,15.10
2022-09-21T15:29:14.015Z,14.90
2022-09-21T15:31:15.376Z,14.80
2022-09-21T15:33:23.557Z,14.60
2022-09-21T15:35:29.378Z,14.50
2022-09-21T15:37:37.158Z,14.30
2022-09-21T15:39:41.416Z,14.10
2022-09-21T15:41:47.614Z,14.00
2022-09-21T15:43:58.179Z,13.80
2022-09-21T15:46:03.743Z,13.70
2022-09-21T15:48:14.002Z,13.60
2022-09-21T15:50:20.260Z,13.40
2022-09-21T15:52:31.574Z,13.20
2022-09-21T15:54:37.564Z,13.10
2022-09-21T15:56:46.124Z,12.90
2022-09-21T15:58:51.478Z,12.70
2022-09-21T16:00:58.057Z,12.70
2022-09-21T16:03:07.533Z,12.40
2022-09-21T16:05:16.161Z,12.50
2022-09-21T16:07:33.193Z,12.40
2022-09-21T16:09:45.153Z,12.20
2022-09-21T16:11:48.529Z,12.00
2022-09-21T16:14:23.200Z,11.80
2022-09-21T16:16:26.921Z,11.70
2022-09-21T16:18:35.883Z,11.70
2022-09-21T16:20:45.820Z,11.60
2022-09-21T16:22:51.471Z,11.40
2022-09-21T16:24:56.629Z,11.50
2022-09-21T16:29:21.213Z,11.40
2022-09-21T16:31:36.227Z,11.30
2022-09-21T16:35:46.540Z,11.20
2022-09-21T16:37:50.134Z,11.00
2022-09-21T16:39:54.052Z,10.90
2022-09-21T16:42:02.468Z,10.70
2022-09-21T16:44:06.031Z,10.60
2022-09-21T16:48:14.929Z,10.30
2022-09-21T16:50:19.002Z,10.20
2022-09-21T16:52:23.146Z,10.20
2022-09-21T16:54:27.359Z,10.10
2022-09-21T16:58:35.944Z,9.90
2022-09-21T17:00:42.551Z,9.80
2022-09-21T17:15:14.591Z,9.30
2022-09-21T17:17:20.109Z,9.20
2022-09-21T17:19:25.218Z,9.10
2022-09-21T17:21:28.598Z,9.10
2022-09-21T17:25:37.081Z,8.90
2022-09-21T17:27:41.252Z,8.80
2022-09-21T17:31:55.006Z,8.80
2022-09-21T17:38:14.140Z,8.70
2022-09-21T17:40:18.552Z,8.80
2022-09-21T17:42:25.204Z,8.70
2022-09-21T17:46:55.865Z,8.80
2022-09-21T17:51:05.081Z,8.90
2022-09-21T17:53:28.258Z,8.90
2022-09-21T17:55:32.269Z,8.90
2022-09-21T17:57:48.564Z,9.00
2022-09-21T18:02:00.312Z,9.10
2022-09-21T18:04:04.761Z,9.20
2022-09-21T18:08:14.742Z,9.60
2022-09-21T18:10:18.704Z,9.70
2022-09-21T18:12:55.467Z,9.80
2022-09-21T18:15:05.911Z,9.90
2022-09-21T18:17:32.867Z,9.90
2022-09-21T18:19:48.584Z,9.90
2022-09-21T18:21:58.221Z,9.80
2022-09-21T18:24:22.258Z,9.80
2022-09-21T18:26:26.769Z,9.80
2022-09-21T18:28:41.626Z,9.80
2022-09-21T18:33:08.287Z,9.80
2022-09-21T18:35:38.893Z,9.80
2022-09-21T18:37:55.183Z,9.80
2022-09-21T18:40:11.283Z,9.60
2022-09-21T18:42:29.402Z,9.50
2022-09-21T18:46:54.220Z,9.60
2022-09-21T18:49:03.966Z,9.60
2022-09-21T18:51:14.367Z,9.60
2022-09-21T18:53:25.596Z,9.60
2022-09-21T18:57:35.656Z,9.60
2022-09-21T18:59:39.691Z,9.60
2022-09-21T19:03:49.266Z,9.50
2022-09-21T19:06:22.309Z,9.50
2022-09-21T19:08:35.627Z,9.50
2022-09-21T19:13:16.639Z,9.30
2022-09-21T19:15:48.721Z,9.30
2022-09-21T19:18:05.127Z,9.10
2022-09-21T19:22:37.462Z,8.80
2022-09-21T19:24:47.147Z,8.70
2022-09-21T19:26:58.531Z,8.80
2022-09-21T19:29:35.251Z,8.90
2022-09-21T19:31:38.872Z,8.90
2022-09-21T19:33:51.219Z,8.70
2022-09-21T19:38:01.553Z,8.90
2022-09-21T19:40:08.452Z,9.00
2022-09-21T19:44:45.474Z,9.10
2022-09-21T19:46:58.623Z,9.20
2022-09-21T19:49:10.776Z,9.20
2022-09-21T19:51:19.825Z,9.20
2022-09-21T19:53:41.134Z,9.20
2022-09-21T19:56:03.849Z,9.10
2022-09-21T20:00:29.107Z,9.10
2022-09-21T20:02:34.499Z,9.10
2022-09-21T20:04:46.149Z,9.20
2022-09-21T20:06:55.547Z,9.20
2022-09-21T20:09:06.431Z,9.10
2022-09-21T20:11:16.024Z,9.10
2022-09-21T20:13:29.314Z,9.10
2022-09-21T20:15:39.056Z,9.20
2022-09-21T20:24:11.469Z,9.10
2022-09-21T20:26:24.486Z,9.10
2022-09-21T20:28:28.431Z,9.10
2022-09-21T20:30:34.239Z,9.10
2022-09-21T20:32:39.446Z,9.00
2022-09-21T20:34:46.326Z,8.90
2022-09-21T20:36:49.554Z,9.00
2022-09-21T20:38:56.833Z,9.00
2022-09-21T20:41:00.122Z,8.90
2022-09-21T20:43:05.514Z,8.70
2022-09-21T20:45:10.701Z,8.70
2022-09-21T20:47:14.041Z,8.80
2022-09-21T20:49:17.397Z,8.70
2022-09-21T20:51:21.085Z,8.70
2022-09-21T20:53:24.803Z,8.60
2022-09-21T20:55:29.281Z,8.60
2022-09-21T20:57:32.578Z,8.40
2022-09-21T20:59:37.262Z,8.30
2022-09-21T21:01:41.169Z,8.20
2022-09-21T21:03:44.727Z,8.10
2022-09-21T21:05:48.084Z,7.90
2022-09-21T21:09:55.456Z,7.70
2022-09-21T21:16:12.220Z,7.30
2022-09-21T21:24:41.101Z,6.90
2022-09-21T21:27:01.136Z,7.10
2022-09-21T21:31:12.130Z,7.50
2022-09-21T21:33:15.298Z,7.60
2022-09-21T21:41:32.660Z,8.20
2022-09-21T21:45:39.917Z,8.20
2022-09-21T21:47:44.630Z,8.20
2022-09-21T21:49:48.458Z,8.20
2022-09-21T21:51:52.482Z,8.20
2022-09-21T21:53:55.657Z,8.20
2022-09-21T22:00:16.524Z,8.20
2022-09-21T22:04:27.794Z,8.00
2022-09-21T22:06:32.590Z,8.10
2022-09-21T22:10:39.914Z,8.00
2022-09-21T22:12:44.097Z,8.10
2022-09-21T22:16:51.450Z,8.00
2022-09-21T22:18:54.906Z,7.90
2022-09-21T22:21:04.603Z,8.00
2022-09-21T22:25:12.458Z,7.80
2022-09-21T22:31:27.598Z,7.80
2022-09-21T22:33:33.546Z,7.80
2022-09-21T22:39:45.501Z,7.70
2022-09-21T22:41:48.925Z,7.50
2022-09-21T22:43:54.444Z,7.50
2022-09-21T22:45:57.937Z,7.60
2022-09-21T22:52:08.539Z,7.30
2022-09-21T22:54:17.104Z,7.20
2022-09-21T22:56:22.801Z,7.20
2022-09-21T23:06:44.371Z,6.90
2022-09-21T23:10:55.002Z,6.60
2022-09-21T23:12:58.330Z,6.50
2022-09-21T23:23:23.857Z,6.40
2022-09-21T23:25:27.187Z,6.60
2022-09-21T23:27:31.807Z,6.90
2022-09-21T23:29:35.032Z,7.10
2022-09-21T23:39:59.747Z,6.70
2022-09-21T23:44:11.057Z,6.30
2022-09-21T23:46:17.722Z,6.20
2022-09-21T23:48:21.163Z,6.00
2022-09-21T23:50:24.585Z,6.10
2022-09-21T23:52:28.810Z,6.40
2022-09-21T23:54:32.151Z,6.40
